createdAt,value
2018-05-07T00:01:38.626Z,10.20
2018-05-07T00:04:05.040Z,10.20
2018-05-07T00:06:31.341Z,10.20
2018-05-07T00:08:57.655Z,10.10
2018-05-07T00:11:23.978Z,10.10
2018-05-07T00:13:51.071Z,10.10
2018-05-07T00:16:17.432Z,10.10
2018-05-07T00:18:43.750Z,10.10
2018-05-07T00:21:10.076Z,10.00
2018-05-07T00:23:36.425Z,10.00
2018-05-07T00:26:02.744Z,9.90
2018-05-07T00:28:29.043Z,9.90
2018-05-07T00:30:55.335Z,10.00
2018-05-07T00:33:21.643Z,10.00
2018-05-07T00:35:47.997Z,10.00
2018-05-07T00:38:14.268Z,10.00
2018-05-07T00:40:40.569Z,10.00
2018-05-07T00:43:07.639Z,10.00
2018-05-07T00:45:34.001Z,9.90
2018-05-07T00:48:01.073Z,9.90
2018-05-07T00:50:27.413Z,9.80
2018-05-07T00:52:53.736Z,9.70
2018-05-07T00:55:20.986Z,9.70
2018-05-07T00:57:47.318Z,9.60
2018-05-07T01:00:13.604Z,9.50
2018-05-07T01:02:39.933Z,9.40
2018-05-07T01:05:06.276Z,9.40
2018-05-07T01:07:32.600Z,9.40
2018-05-07T01:09:58.906Z,9.40
2018-05-07T01:12:25.966Z,9.40
2018-05-07T01:14:52.296Z,9.40
2018-05-07T01:17:18.658Z,9.30
2018-05-07T01:19:44.986Z,9.20
2018-05-07T01:22:11.288Z,9.20
2018-05-07T01:24:37.536Z,9.20
2018-05-07T01:27:03.919Z,9.20
2018-05-07T01:29:30.204Z,9.10
2018-05-07T01:31:56.538Z,9.10
2018-05-07T01:34:22.846Z,9.00
2018-05-07T01:36:49.165Z,9.10
2018-05-07T01:39:16.213Z,9.10
2018-05-07T01:41:43.270Z,9.20
2018-05-07T01:44:09.554Z,9.10
2018-05-07T01:46:35.891Z,9.20
2018-05-07T01:49:02.284Z,9.10
2018-05-07T01:51:28.612Z,9.00
2018-05-07T01:53:54.948Z,8.90
2018-05-07T01:56:21.296Z,8.90
2018-05-07T01:58:47.649Z,8.80
2018-05-07T02:01:13.940Z,8.80
2018-05-07T02:03:40.289Z,8.90
2018-05-07T02:06:06.649Z,8.80
2018-05-07T02:08:32.928Z,8.80
2018-05-07T02:10:59.317Z,8.80
2018-05-07T02:13:26.493Z,8.60
2018-05-07T02:15:52.846Z,8.60
2018-05-07T02:18:19.308Z,8.60
2018-05-07T02:20:45.701Z,8.60
2018-05-07T02:23:12.104Z,8.50
2018-05-07T02:25:39.191Z,8.50
2018-05-07T02:28:05.547Z,8.50
2018-05-07T02:30:31.878Z,8.50
2018-05-07T02:32:58.191Z,8.60
2018-05-07T02:35:24.522Z,8.60
2018-05-07T02:37:50.862Z,8.60
2018-05-07T02:40:17.195Z,8.50
2018-05-07T02:42:43.509Z,8.50
2018-05-07T02:45:09.890Z,8.50
2018-05-07T02:47:36.184Z,8.40
2018-05-07T02:50:02.510Z,8.40
2018-05-07T02:52:28.746Z,8.30
2018-05-07T02:54:55.081Z,8.30
2018-05-07T02:57:21.405Z,8.30
2018-05-07T02:59:47.717Z,8.30
2018-05-07T03:02:14.067Z,8.20
2018-05-07T03:04:40.398Z,8.20
2018-05-07T03:07:06.734Z,8.10
2018-05-07T03:09:33.075Z,8.10
2018-05-07T03:11:59.436Z,8.10
2018-05-07T03:14:25.775Z,8.10
2018-05-07T03:16:52.892Z,8.00
2018-05-07T03:19:19.190Z,8.10
2018-05-07T03:21:45.529Z,8.00
2018-05-07T03:24:11.845Z,8.00
2018-05-07T03:26:38.275Z,8.00
2018-05-07T03:29:04.615Z,8.00
2018-05-07T03:31:30.935Z,7.90
2018-05-07T03:33:57.298Z,7.90
2018-05-07T03:36:23.654Z,8.00
2018-05-07T03:38:49.958Z,8.00
2018-05-07T03:41:16.283Z,8.00
2018-05-07T03:43:42.599Z,8.00
2018-05-07T03:46:08.947Z,8.00
2018-05-07T03:48:35.377Z,7.90
2018-05-07T03:51:02.409Z,8.10
2018-05-07T03:53:28.769Z,8.00
2018-05-07T03:55:55.132Z,8.20
2018-05-07T03:58:21.569Z,8.20
2018-05-07T04:00:47.918Z,8.20
2018-05-07T04:03:14.953Z,8.30
2018-05-07T04:05:41.349Z,8.30
2018-05-07T04:08:07.648Z,8.30
2018-05-07T04:10:40.952Z,8.30
2018-05-07T04:13:07.307Z,8.30
2018-05-07T04:15:33.702Z,8.30
2018-05-07T04:18:19.394Z,8.70
2018-05-07T04:21:04.280Z,8.60
2018-05-07T04:23:49.207Z,8.70
2018-05-07T04:26:16.236Z,8.80
2018-05-07T04:28:42.570Z,8.80
2018-05-07T04:31:08.858Z,8.80
2018-05-07T04:33:35.179Z,8.90
2018-05-07T04:36:01.481Z,9.10
2018-05-07T04:38:28.543Z,9.30
2018-05-07T04:40:54.861Z,9.20
2018-05-07T04:43:21.973Z,9.60
2018-05-07T04:45:48.282Z,9.60
2018-05-07T04:48:14.634Z,9.60
2018-05-07T04:50:40.979Z,9.80
2018-05-07T04:53:07.303Z,10.00
2018-05-07T04:55:33.629Z,10.20
2018-05-07T04:58:00.006Z,10.40
2018-05-07T05:00:26.351Z,10.60
2018-05-07T05:02:52.708Z,10.70
2018-05-07T05:05:19.108Z,10.90
2018-05-07T05:07:45.547Z,11.00
2018-05-07T05:10:11.926Z,11.10
2018-05-07T05:12:38.357Z,11.10
2018-05-07T05:15:04.999Z,11.10
2018-05-07T05:17:31.359Z,11.40
2018-05-07T05:19:58.419Z,11.80
2018-05-07T05:22:25.532Z,11.90
2018-05-07T05:24:51.861Z,11.80
2018-05-07T05:27:18.262Z,12.00
2018-05-07T05:29:44.541Z,12.30
2018-05-07T05:32:10.841Z,12.30
2018-05-07T05:34:37.170Z,12.70
2018-05-07T05:37:03.471Z,12.90
2018-05-07T05:39:29.819Z,12.70
2018-05-07T05:41:56.139Z,12.80
2018-05-07T05:44:22.564Z,12.80
2018-05-07T05:46:48.853Z,12.80
2018-05-07T05:49:15.132Z,13.00
2018-05-07T05:51:41.478Z,13.50
2018-05-07T05:54:07.844Z,13.60
2018-05-07T05:56:34.148Z,13.70
2018-05-07T05:59:00.481Z,14.00
2018-05-07T06:01:26.783Z,14.10
2018-05-07T06:03:53.221Z,13.90
2018-05-07T06:06:19.507Z,14.00
2018-05-07T06:08:45.800Z,14.00
2018-05-07T06:11:12.084Z,14.00
2018-05-07T06:13:39.200Z,14.50
2018-05-07T06:16:05.501Z,14.50
2018-05-07T06:18:31.815Z,14.10
2018-05-07T06:20:58.162Z,14.10
2018-05-07T06:23:25.329Z,14.10
2018-05-07T06:25:51.652Z,14.50
2018-05-07T06:28:18.044Z,14.60
2018-05-07T06:30:45.116Z,15.20
2018-05-07T06:33:11.579Z,15.20
2018-05-07T06:35:37.964Z,15.30
2018-05-07T06:38:04.263Z,15.70
2018-05-07T06:40:30.599Z,15.60
2018-05-07T06:42:56.932Z,15.50
2018-05-07T06:45:23.312Z,15.70
2018-05-07T06:47:49.676Z,16.20
2018-05-07T06:50:16.047Z,16.40
2018-05-07T06:52:43.159Z,17.10
2018-05-07T06:55:09.586Z,17.00
2018-05-07T06:57:35.945Z,17.20
2018-05-07T07:00:03.089Z,17.20
2018-05-07T07:02:29.559Z,17.10
2018-05-07T07:04:56.026Z,16.80
2018-05-07T07:07:22.371Z,16.40
2018-05-07T07:09:48.724Z,16.70
2018-05-07T07:12:15.098Z,16.90
2018-05-07T07:14:41.407Z,17.40
2018-05-07T07:17:08.443Z,17.40
2018-05-07T07:19:35.609Z,17.30
2018-05-07T07:22:02.736Z,17.30
2018-05-07T07:24:29.141Z,17.30
2018-05-07T07:26:55.502Z,17.60
2018-05-07T07:29:21.833Z,17.10
2018-05-07T07:31:48.903Z,18.10
2018-05-07T07:34:15.197Z,18.10
2018-05-07T07:36:41.543Z,18.50
2018-05-07T07:39:08.818Z,18.10
2018-05-07T07:41:35.190Z,18.10
2018-05-07T07:44:01.556Z,18.70
2018-05-07T07:46:28.656Z,18.70
2018-05-07T07:48:55.001Z,18.60
2018-05-07T07:51:21.421Z,19.10
2018-05-07T07:53:47.795Z,19.30
2018-05-07T07:56:14.120Z,19.50
2018-05-07T07:58:40.522Z,19.70
2018-05-07T08:01:06.884Z,19.80
2018-05-07T08:03:34.019Z,19.60
2018-05-07T08:06:01.186Z,19.60
2018-05-07T08:08:28.317Z,19.40
2018-05-07T08:10:54.812Z,19.40
2018-05-07T08:13:21.854Z,19.70
2018-05-07T08:15:49.252Z,19.50
2018-05-07T08:18:15.647Z,19.50
2018-05-07T08:20:42.934Z,19.00
2018-05-07T08:23:09.307Z,19.00
2018-05-07T08:25:35.754Z,19.50
2018-05-07T08:28:02.955Z,20.10
2018-05-07T08:30:29.524Z,20.10
2018-05-07T08:32:56.138Z,20.40
2018-05-07T08:35:22.500Z,20.10
2018-05-07T08:37:48.847Z,20.30
2018-05-07T08:40:15.233Z,20.10
2018-05-07T08:42:41.549Z,20.20
2018-05-07T08:45:07.839Z,20.30
2018-05-07T08:47:34.155Z,20.30
2018-05-07T08:50:00.560Z,20.10
2018-05-07T08:52:26.898Z,20.40
2018-05-07T08:54:54.098Z,20.60
2018-05-07T08:57:20.482Z,20.60
2018-05-07T08:59:46.789Z,20.90
2018-05-07T09:02:13.183Z,20.80
2018-05-07T09:04:39.473Z,20.70
2018-05-07T09:07:05.840Z,20.80
2018-05-07T09:09:32.234Z,20.80
2018-05-07T09:11:58.570Z,21.00
2018-05-07T09:14:25.006Z,21.00
2018-05-07T09:16:51.470Z,20.90
2018-05-07T09:19:17.796Z,21.00
2018-05-07T09:21:44.191Z,21.10
2018-05-07T09:24:10.567Z,21.20
2018-05-07T09:26:36.900Z,21.10
2018-05-07T09:29:03.240Z,21.40
2018-05-07T09:31:29.655Z,21.10
2018-05-07T09:33:55.949Z,21.30
2018-05-07T09:36:22.299Z,21.40
2018-05-07T09:38:48.687Z,21.40
2018-05-07T09:41:15.830Z,21.10
2018-05-07T09:43:42.169Z,21.10
2018-05-07T09:46:08.552Z,21.20
2018-05-07T09:48:34.927Z,21.20
2018-05-07T09:51:02.004Z,21.30
2018-05-07T09:53:28.371Z,21.30
2018-05-07T09:55:54.843Z,21.40
2018-05-07T09:58:21.278Z,21.50
2018-05-07T10:00:47.738Z,21.50
2018-05-07T10:03:14.042Z,21.30
2018-05-07T10:05:40.383Z,21.30
2018-05-07T10:08:06.907Z,21.50
2018-05-07T10:10:33.269Z,21.50
2018-05-07T10:12:59.634Z,21.50
2018-05-07T10:15:26.009Z,21.70
2018-05-07T10:17:52.395Z,21.80
2018-05-07T10:20:18.778Z,21.60
2018-05-07T10:22:45.858Z,21.80
2018-05-07T10:25:12.236Z,21.70
2018-05-07T10:27:39.498Z,21.80
2018-05-07T10:30:06.541Z,21.90
2018-05-07T10:32:33.049Z,21.90
2018-05-07T10:34:59.442Z,21.80
2018-05-07T10:37:25.874Z,21.50
2018-05-07T10:39:52.379Z,21.70
2018-05-07T10:42:19.555Z,21.70
2018-05-07T10:44:45.936Z,21.70
2018-05-07T10:47:12.355Z,21.90
2018-05-07T10:49:38.699Z,22.00
2018-05-07T10:52:05.401Z,22.10
2018-05-07T10:54:31.844Z,22.00
2018-05-07T10:56:58.277Z,22.00
2018-05-07T10:59:24.782Z,21.90
2018-05-07T11:01:51.144Z,21.80
2018-05-07T11:04:17.724Z,21.90
2018-05-07T11:06:44.875Z,22.00
2018-05-07T11:09:11.363Z,22.00
2018-05-07T11:11:37.829Z,22.20
2018-05-07T11:14:04.266Z,22.40
2018-05-07T11:16:30.712Z,22.60
2018-05-07T11:18:57.167Z,22.70
2018-05-07T11:21:24.367Z,22.70
2018-05-07T11:23:50.804Z,22.70
2018-05-07T11:26:18.051Z,22.90
2018-05-07T11:28:45.316Z,22.90
2018-05-07T11:31:12.514Z,23.00
2018-05-07T11:33:38.896Z,23.00
2018-05-07T11:36:05.400Z,23.20
2018-05-07T11:38:31.886Z,23.30
2018-05-07T11:40:58.456Z,23.40
2018-05-07T11:43:26.462Z,24.00
2018-05-07T11:45:52.990Z,24.70
2018-05-07T11:48:19.347Z,24.90
2018-05-07T11:50:45.696Z,26.60
2018-05-07T11:53:12.110Z,27.40
2018-05-07T11:55:38.527Z,29.30
2018-05-07T11:58:04.960Z,29.90
2018-05-07T12:00:31.399Z,31.20
2018-05-07T12:02:57.920Z,32.60
2018-05-07T12:05:24.293Z,34.50
2018-05-07T12:07:50.699Z,34.00
2018-05-07T12:10:17.091Z,34.00
2018-05-07T12:12:43.483Z,34.10
2018-05-07T12:15:10.483Z,36.00
2018-05-07T12:17:36.852Z,35.60
2018-05-07T12:20:03.302Z,37.30
2018-05-07T12:22:30.492Z,39.20
2018-05-07T12:24:56.835Z,39.10
2018-05-07T12:27:23.214Z,38.20
2018-05-07T12:29:49.683Z,39.30
2018-05-07T12:32:16.055Z,39.10
2018-05-07T12:34:42.432Z,41.30
2018-05-07T12:37:09.507Z,41.30
2018-05-07T12:39:35.842Z,41.30
2018-05-07T12:42:02.165Z,40.20
2018-05-07T12:44:28.551Z,40.30
2018-05-07T12:46:54.982Z,41.70
2018-05-07T12:49:21.303Z,40.10
2018-05-07T12:51:47.695Z,38.70
2018-05-07T12:54:14.080Z,39.10
2018-05-07T12:56:40.501Z,41.10
2018-05-07T12:59:06.979Z,41.10
2018-05-07T13:01:33.301Z,41.90
2018-05-07T13:04:00.624Z,42.50
2018-05-07T13:06:26.980Z,42.50
2018-05-07T13:08:53.346Z,41.50
2018-05-07T13:11:19.763Z,42.50
2018-05-07T13:13:46.177Z,43.00
2018-05-07T13:16:12.530Z,43.50
2018-05-07T13:18:38.890Z,41.70
2018-05-07T13:21:05.256Z,41.20
2018-05-07T13:23:31.650Z,42.50
2018-05-07T13:25:58.004Z,43.00
2018-05-07T13:28:24.504Z,42.40
2018-05-07T13:30:50.819Z,42.20
2018-05-07T13:33:18.006Z,42.00
2018-05-07T13:35:44.465Z,42.00
2018-05-07T13:38:10.804Z,42.40
2018-05-07T13:40:37.238Z,42.20
2018-05-07T13:43:03.573Z,42.80
2018-05-07T13:45:29.929Z,44.00
2018-05-07T13:47:57.009Z,43.10
2018-05-07T13:50:23.349Z,43.10
2018-05-07T13:52:49.701Z,43.80
2018-05-07T13:55:16.076Z,44.30
2018-05-07T13:57:43.148Z,44.10
2018-05-07T14:00:09.522Z,44.10
2018-05-07T14:02:35.946Z,44.10
2018-05-07T14:05:02.289Z,43.20
2018-05-07T14:07:28.631Z,43.90
2018-05-07T14:09:55.039Z,42.60
2018-05-07T14:12:21.341Z,40.20
2018-05-07T14:14:47.642Z,40.90
2018-05-07T14:17:14.798Z,41.30
2018-05-07T14:19:41.146Z,41.20
2018-05-07T14:22:07.469Z,42.40
2018-05-07T14:24:33.813Z,43.30
2018-05-07T14:27:00.159Z,45.00
2018-05-07T14:29:26.467Z,44.90
2018-05-07T14:31:52.847Z,46.30
2018-05-07T14:34:19.216Z,44.90
2018-05-07T14:36:46.322Z,44.50
2018-05-07T14:39:12.632Z,44.50
2018-05-07T14:41:38.992Z,42.00
2018-05-07T14:44:05.385Z,43.90
2018-05-07T14:46:31.849Z,45.40
2018-05-07T14:48:58.179Z,46.60
2018-05-07T14:51:24.552Z,46.00
2018-05-07T14:53:51.662Z,44.00
2018-05-07T14:56:17.966Z,44.00
2018-05-07T14:58:44.366Z,43.00
2018-05-07T15:01:10.766Z,41.90
2018-05-07T15:03:37.133Z,44.20
2018-05-07T15:06:03.459Z,44.50
2018-05-07T15:08:29.783Z,42.90
2018-05-07T15:10:56.118Z,42.30
2018-05-07T15:13:22.444Z,42.50
2018-05-07T15:15:48.815Z,43.00
2018-05-07T15:18:15.215Z,43.80
2018-05-07T15:20:41.591Z,43.40
2018-05-07T15:23:07.983Z,43.40
2018-05-07T15:25:34.414Z,43.20
2018-05-07T15:28:00.734Z,42.80
2018-05-07T15:30:27.080Z,42.90
2018-05-07T15:32:53.397Z,43.30
2018-05-07T15:35:19.816Z,43.40
2018-05-07T15:37:46.171Z,43.00
2018-05-07T15:40:12.623Z,44.00
2018-05-07T15:42:39.659Z,43.20
2018-05-07T15:45:05.958Z,43.20
2018-05-07T15:47:32.324Z,42.80
2018-05-07T15:49:59.358Z,40.60
2018-05-07T15:52:25.722Z,40.60
2018-05-07T15:54:52.071Z,40.50
2018-05-07T15:57:18.463Z,41.60
2018-05-07T15:59:44.759Z,42.10
2018-05-07T16:02:11.137Z,42.20
2018-05-07T16:04:38.216Z,43.00
2018-05-07T16:07:04.590Z,43.10
2018-05-07T16:09:30.940Z,42.40
2018-05-07T16:11:57.698Z,40.20
2018-05-07T16:14:24.767Z,40.40
2018-05-07T16:16:51.125Z,40.40
2018-05-07T16:19:17.630Z,40.70
2018-05-07T16:21:44.800Z,40.50
2018-05-07T16:24:11.049Z,40.40
2018-05-07T16:26:37.515Z,39.20
2018-05-07T16:29:03.824Z,39.60
2018-05-07T16:31:30.240Z,39.80
2018-05-07T16:33:56.617Z,39.90
2018-05-07T16:36:23.698Z,38.50
2018-05-07T16:38:50.107Z,38.50
2018-05-07T16:41:16.441Z,37.60
2018-05-07T16:43:43.605Z,38.20
2018-05-07T16:46:09.955Z,38.10
2018-05-07T16:48:36.567Z,37.10
2018-05-07T16:51:02.847Z,37.30
2018-05-07T16:53:29.251Z,37.90
2018-05-07T16:55:55.609Z,38.60
2018-05-07T16:58:21.977Z,37.50
2018-05-07T17:00:49.149Z,37.20
2018-05-07T17:03:15.478Z,37.10
2018-05-07T17:05:42.122Z,36.50
2018-05-07T17:08:08.516Z,36.80
2018-05-07T17:10:35.646Z,37.90
2018-05-07T17:13:02.044Z,37.80
2018-05-07T17:15:28.409Z,37.90
2018-05-07T17:17:55.211Z,37.30
2018-05-07T17:20:21.556Z,35.50
2018-05-07T17:22:47.923Z,35.60
2018-05-07T17:25:14.325Z,34.70
2018-05-07T17:27:40.635Z,34.80
2018-05-07T17:30:07.159Z,35.10
2018-05-07T17:32:33.459Z,35.30
2018-05-07T17:34:59.767Z,34.50
2018-05-07T17:37:26.118Z,34.10
2018-05-07T17:39:52.444Z,33.80
2018-05-07T17:42:18.858Z,33.20
2018-05-07T17:45:03.897Z,33.10
2018-05-07T17:47:48.991Z,32.40
2018-05-07T17:50:15.406Z,31.50
2018-05-07T17:52:41.778Z,29.50
2018-05-07T17:55:08.835Z,27.70
2018-05-07T17:57:35.142Z,27.70
2018-05-07T18:00:01.614Z,26.60
2018-05-07T18:02:27.999Z,25.60
2018-05-07T18:04:54.359Z,25.40
2018-05-07T18:07:20.853Z,24.90
2018-05-07T18:09:47.488Z,24.60
2018-05-07T18:12:13.975Z,24.30
2018-05-07T18:14:40.481Z,23.80
2018-05-07T18:17:06.949Z,23.60
2018-05-07T18:19:33.454Z,23.40
2018-05-07T18:21:59.893Z,23.20
2018-05-07T18:24:26.340Z,23.00
2018-05-07T18:26:54.110Z,22.90
2018-05-07T18:29:20.501Z,22.70
2018-05-07T18:31:47.004Z,22.40
2018-05-07T18:34:14.435Z,22.20
2018-05-07T18:36:41.054Z,22.10
2018-05-07T18:39:08.314Z,21.90
2018-05-07T18:41:34.869Z,21.90
2018-05-07T18:44:02.038Z,21.50
2018-05-07T18:46:28.447Z,21.50
2018-05-07T18:48:55.524Z,21.40
2018-05-07T18:51:22.625Z,21.30
2018-05-07T18:53:48.936Z,21.30
2018-05-07T18:56:15.270Z,21.10
2018-05-07T18:58:42.771Z,20.90
2018-05-07T19:01:09.207Z,20.80
2018-05-07T19:03:35.465Z,20.70
2018-05-07T19:06:02.837Z,20.50
2018-05-07T19:08:29.188Z,20.40
2018-05-07T19:10:55.650Z,20.40
2018-05-07T19:13:22.112Z,20.20
2018-05-07T19:15:48.619Z,20.10
2018-05-07T19:18:14.954Z,20.00
2018-05-07T19:20:41.380Z,19.80
2018-05-07T19:23:08.433Z,19.60
2018-05-07T19:25:34.954Z,19.60
2018-05-07T19:28:01.343Z,19.50
2018-05-07T19:30:28.418Z,19.30
2018-05-07T19:32:54.743Z,19.30
2018-05-07T19:35:21.137Z,19.20
2018-05-07T19:37:47.546Z,19.10
2018-05-07T19:40:13.826Z,19.00
2018-05-07T19:42:40.160Z,18.90
2018-05-07T19:45:06.522Z,18.80
2018-05-07T19:47:33.086Z,18.70
2018-05-07T19:49:59.451Z,18.60
2018-05-07T19:52:26.568Z,18.50
2018-05-07T19:54:52.974Z,18.40
2018-05-07T19:57:19.320Z,18.30
2018-05-07T19:59:45.737Z,18.30
2018-05-07T20:02:12.096Z,18.20
2018-05-07T20:04:38.598Z,18.20
2018-05-07T20:07:05.388Z,18.10
2018-05-07T20:09:31.731Z,18.00
2018-05-07T20:11:59.159Z,17.70
2018-05-07T20:14:26.084Z,17.70
2018-05-07T20:16:52.750Z,17.60
2018-05-07T20:19:19.230Z,17.60
2018-05-07T20:21:45.672Z,17.50
2018-05-07T20:24:12.459Z,17.50
2018-05-07T20:26:39.370Z,17.50
2018-05-07T20:29:06.029Z,17.50
2018-05-07T20:31:32.681Z,17.50
2018-05-07T20:34:00.038Z,17.40
2018-05-07T20:36:27.055Z,17.20
2018-05-07T20:38:53.821Z,17.10
2018-05-07T20:41:20.763Z,17.00
2018-05-07T20:43:48.378Z,16.70
2018-05-07T20:46:15.760Z,16.70
2018-05-07T20:48:42.224Z,16.70
2018-05-07T20:51:08.966Z,16.60
2018-05-07T20:53:35.761Z,16.50
2018-05-07T20:56:03.032Z,16.40
2018-05-07T20:58:29.768Z,16.20
2018-05-07T21:00:56.667Z,16.10
2018-05-07T21:03:24.695Z,16.00
2018-05-07T21:05:51.451Z,16.00
2018-05-07T21:08:18.291Z,16.00
2018-05-07T21:10:46.260Z,15.90
2018-05-07T21:13:13.269Z,15.80
2018-05-07T21:15:40.865Z,15.70
2018-05-07T21:18:07.365Z,15.70
2018-05-07T21:20:34.428Z,15.60
2018-05-07T21:23:02.584Z,15.50
2018-05-07T21:25:29.805Z,15.40
2018-05-07T21:28:05.256Z,15.40
2018-05-07T21:30:32.771Z,15.10
2018-05-07T21:33:00.065Z,15.00
2018-05-07T21:35:33.732Z,14.90
2018-05-07T21:38:00.997Z,14.90
2018-05-07T21:40:28.677Z,14.90
2018-05-07T21:42:55.617Z,14.80
2018-05-07T21:45:22.662Z,14.90
2018-05-07T21:47:51.331Z,14.80
2018-05-07T21:50:19.218Z,14.80
2018-05-07T21:52:46.206Z,14.70
2018-05-07T21:55:13.283Z,14.60
2018-05-07T21:57:40.506Z,14.60
2018-05-07T22:00:07.674Z,14.60
2018-05-07T22:02:34.058Z,14.50
2018-05-07T22:05:00.687Z,14.40
2018-05-07T22:07:27.537Z,14.40
2018-05-07T22:09:55.195Z,14.40
2018-05-07T22:12:21.778Z,14.30
2018-05-07T22:14:49.395Z,14.30
2018-05-07T22:17:16.150Z,14.40
2018-05-07T22:19:43.522Z,14.20
2018-05-07T22:22:10.148Z,14.20
2018-05-07T22:24:37.814Z,14.10
2018-05-07T22:27:04.400Z,14.00
2018-05-07T22:29:31.009Z,14.00
2018-05-07T22:31:57.671Z,13.90
2018-05-07T22:34:24.293Z,13.90
2018-05-07T22:36:50.805Z,13.90
2018-05-07T22:39:17.371Z,13.80
2018-05-07T22:41:43.856Z,13.70
2018-05-07T22:44:10.400Z,13.70
2018-05-07T22:46:37.628Z,13.60
2018-05-07T22:49:04.221Z,13.60
2018-05-07T22:51:31.223Z,13.60
2018-05-07T22:53:57.917Z,13.60
2018-05-07T22:56:24.864Z,13.50
2018-05-07T22:58:51.283Z,13.40
2018-05-07T23:01:17.944Z,13.40
2018-05-07T23:03:44.417Z,13.30
2018-05-07T23:06:12.096Z,13.30
2018-05-07T23:08:38.653Z,13.20
2018-05-07T23:11:05.101Z,13.20
2018-05-07T23:13:31.587Z,13.20
2018-05-07T23:15:58.138Z,13.10
2018-05-07T23:18:24.742Z,13.00
2018-05-07T23:20:51.270Z,12.90
2018-05-07T23:23:18.100Z,12.70
2018-05-07T23:25:44.701Z,12.60
2018-05-07T23:28:12.157Z,12.60
2018-05-07T23:30:39.135Z,12.50
2018-05-07T23:33:05.887Z,12.40
2018-05-07T23:35:32.971Z,12.30
2018-05-07T23:37:59.588Z,12.30
2018-05-07T23:40:27.052Z,12.20
2018-05-07T23:42:53.713Z,12.20
2018-05-07T23:45:23.495Z,12.20
2018-05-07T23:47:50.321Z,12.20
2018-05-07T23:50:17.004Z,12.20
2018-05-07T23:52:43.620Z,12.20
2018-05-07T23:55:10.300Z,12.20
2018-05-07T23:57:36.931Z,12.20
